createdAt,value
2022-12-26T00:01:07.795Z,5.60
2022-12-26T00:03:35.968Z,5.60
2022-12-26T00:06:04.382Z,5.60
2022-12-26T00:08:32.285Z,5.70
2022-12-26T00:11:00.172Z,5.70
2022-12-26T00:13:39.426Z,5.60
2022-12-26T00:16:13.140Z,5.60
2022-12-26T00:18:41.305Z,5.60
2022-12-26T00:21:10.266Z,5.50
2022-12-26T00:23:38.707Z,5.50
2022-12-26T00:26:07.977Z,5.40
2022-12-26T00:28:36.074Z,5.40
2022-12-26T00:31:05.326Z,5.40
2022-12-26T00:33:36.855Z,5.30
2022-12-26T00:36:05.824Z,5.30
2022-12-26T00:38:37.413Z,5.30
2022-12-26T00:41:05.489Z,5.20
2022-12-26T00:43:33.539Z,5.20
2022-12-26T00:46:01.840Z,5.10
2022-12-26T00:48:30.150Z,5.10
2022-12-26T00:50:58.161Z,5.20
2022-12-26T00:53:26.523Z,5.20
2022-12-26T00:55:54.503Z,5.20
2022-12-26T00:58:22.779Z,5.30
2022-12-26T01:00:51.406Z,5.20
2022-12-26T01:03:19.862Z,5.30
2022-12-26T01:05:51.654Z,5.30
2022-12-26T01:08:24.574Z,5.30
2022-12-26T01:10:53.102Z,5.40
2022-12-26T01:13:21.175Z,5.40
2022-12-26T01:15:50.563Z,5.40
2022-12-26T01:18:18.673Z,5.40
2022-12-26T01:20:46.720Z,5.30
2022-12-26T01:23:14.885Z,5.30
2022-12-26T01:26:15.169Z,5.20
2022-12-26T01:28:31.354Z,5.20
2022-12-26T01:31:05.729Z,5.20
2022-12-26T01:33:33.915Z,5.20
2022-12-26T01:36:01.961Z,5.20
2022-12-26T01:38:29.921Z,5.10
2022-12-26T01:41:16.372Z,5.10
2022-12-26T01:43:49.282Z,5.10
2022-12-26T01:46:18.138Z,5.00
2022-12-26T01:48:46.391Z,5.00
2022-12-26T01:51:15.091Z,5.00
2022-12-26T01:53:44.897Z,5.00
2022-12-26T01:56:15.732Z,5.00
2022-12-26T01:58:45.993Z,5.00
2022-12-26T02:01:14.388Z,5.00
2022-12-26T02:04:03.392Z,5.10
2022-12-26T02:06:32.810Z,5.10
2022-12-26T02:09:00.929Z,5.20
2022-12-26T02:11:32.933Z,5.10
2022-12-26T02:14:01.412Z,5.20
2022-12-26T02:16:30.455Z,5.20
2022-12-26T02:18:58.308Z,5.20
2022-12-26T02:21:29.235Z,5.20
2022-12-26T02:24:16.149Z,5.10
2022-12-26T02:27:02.936Z,5.10
2022-12-26T02:29:49.501Z,5.00
2022-12-26T02:32:29.578Z,5.00
2022-12-26T02:34:57.648Z,4.90
2022-12-26T02:37:28.598Z,4.90
2022-12-26T02:40:08.747Z,4.90
2022-12-26T02:42:48.743Z,4.90
2022-12-26T02:45:47.369Z,4.80
2022-12-26T02:48:34.111Z,4.80
2022-12-26T02:51:35.654Z,4.90
2022-12-26T02:54:28.282Z,4.90
2022-12-26T02:57:21.935Z,4.90
2022-12-26T03:00:14.441Z,5.00
2022-12-26T03:03:03.449Z,5.00
2022-12-26T03:05:59.080Z,5.10
2022-12-26T03:09:20.777Z,5.00
2022-12-26T03:12:09.484Z,5.00
2022-12-26T03:14:37.424Z,4.90
2022-12-26T03:17:22.441Z,4.80
2022-12-26T03:20:04.449Z,4.90
2022-12-26T03:22:35.137Z,4.80
2022-12-26T03:25:24.448Z,4.90
2022-12-26T03:27:53.406Z,4.90
2022-12-26T03:30:40.335Z,4.90
2022-12-26T03:33:31.179Z,4.90
2022-12-26T03:35:59.296Z,4.90
2022-12-26T03:38:35.473Z,4.90
2022-12-26T03:41:42.120Z,4.80
2022-12-26T03:44:53.772Z,4.90
2022-12-26T03:47:48.171Z,4.90
2022-12-26T03:50:39.645Z,4.90
2022-12-26T03:53:36.600Z,4.80
2022-12-26T03:56:31.883Z,4.80
2022-12-26T03:59:29.773Z,4.80
2022-12-26T04:02:19.886Z,4.80
2022-12-26T04:05:08.294Z,4.70
2022-12-26T04:07:58.631Z,4.80
2022-12-26T04:10:49.995Z,4.80
2022-12-26T04:13:38.912Z,4.80
2022-12-26T04:16:32.855Z,4.80
2022-12-26T04:19:26.056Z,4.80
2022-12-26T04:22:12.781Z,4.90
2022-12-26T04:25:01.752Z,4.90
2022-12-26T04:27:49.012Z,4.80
2022-12-26T04:30:35.590Z,4.90
2022-12-26T04:33:34.533Z,4.80
2022-12-26T04:36:24.430Z,4.80
2022-12-26T04:39:13.549Z,4.70
2022-12-26T04:42:00.979Z,4.70
2022-12-26T04:44:29.680Z,4.70
2022-12-26T04:46:58.145Z,4.70
2022-12-26T04:49:45.105Z,4.60
2022-12-26T04:52:15.013Z,4.70
2022-12-26T04:54:43.091Z,4.70
2022-12-26T04:57:11.514Z,4.70
2022-12-26T04:59:39.385Z,4.80
2022-12-26T05:02:25.964Z,4.80
2022-12-26T05:05:12.848Z,4.70
2022-12-26T05:07:59.339Z,4.70
2022-12-26T05:10:28.335Z,4.70
2022-12-26T05:12:56.250Z,4.60
2022-12-26T05:15:24.452Z,4.60
2022-12-26T05:18:11.019Z,4.60
2022-12-26T05:20:58.538Z,4.60
2022-12-26T05:23:46.602Z,4.60
2022-12-26T05:26:35.778Z,4.60
2022-12-26T05:29:04.317Z,4.60
2022-12-26T05:31:36.127Z,4.70
2022-12-26T05:34:12.505Z,4.70
2022-12-26T05:36:43.907Z,4.70
2022-12-26T05:39:12.003Z,4.70
2022-12-26T05:41:40.817Z,4.80
2022-12-26T05:44:09.542Z,4.70
2022-12-26T05:46:37.998Z,4.70
2022-12-26T05:49:06.406Z,4.70
2022-12-26T05:51:34.707Z,4.60
2022-12-26T05:54:02.759Z,4.60
2022-12-26T05:56:30.697Z,4.60
2022-12-26T05:59:00.138Z,4.60
2022-12-26T06:01:29.047Z,4.60
2022-12-26T06:03:58.393Z,4.60
2022-12-26T06:06:28.455Z,4.60
2022-12-26T06:08:57.743Z,4.60
2022-12-26T06:11:27.031Z,4.60
2022-12-26T06:13:55.739Z,4.70
2022-12-26T06:16:23.924Z,4.70
2022-12-26T06:18:51.990Z,4.70
2022-12-26T06:21:20.572Z,4.80
2022-12-26T06:23:49.162Z,4.80
2022-12-26T06:26:17.497Z,4.80
2022-12-26T06:28:45.634Z,4.80
2022-12-26T06:31:15.174Z,4.80
2022-12-26T06:33:43.309Z,4.80
2022-12-26T06:36:12.814Z,4.80
2022-12-26T06:38:41.150Z,4.80
2022-12-26T06:41:10.271Z,4.80
2022-12-26T06:43:39.621Z,4.90
2022-12-26T06:46:08.223Z,5.00
2022-12-26T06:48:40.078Z,5.20
2022-12-26T06:51:11.223Z,5.50
2022-12-26T06:53:39.425Z,5.80
2022-12-26T06:56:08.796Z,6.20
2022-12-26T06:58:37.001Z,6.50
2022-12-26T07:01:05.934Z,6.70
2022-12-26T07:03:37.012Z,7.20
2022-12-26T07:06:12.647Z,7.80
2022-12-26T07:08:40.652Z,8.20
2022-12-26T07:11:15.644Z,8.60
2022-12-26T07:13:44.044Z,8.80
2022-12-26T07:16:13.992Z,9.00
2022-12-26T07:18:42.215Z,9.00
2022-12-26T07:21:14.536Z,9.10
2022-12-26T07:23:42.586Z,9.20
2022-12-26T07:26:10.464Z,9.30
2022-12-26T07:28:39.163Z,9.50
2022-12-26T07:31:07.289Z,9.60
2022-12-26T07:33:35.606Z,9.80
2022-12-26T07:36:05.158Z,9.90
2022-12-26T07:38:33.625Z,10.00
2022-12-26T07:41:21.576Z,10.20
2022-12-26T07:43:49.644Z,10.40
2022-12-26T07:46:17.664Z,10.60
2022-12-26T07:48:45.972Z,10.80
2022-12-26T07:51:13.886Z,11.00
2022-12-26T07:53:41.824Z,11.30
2022-12-26T07:56:10.036Z,11.70
2022-12-26T07:58:37.969Z,12.10
2022-12-26T08:01:07.343Z,12.50
2022-12-26T08:03:35.589Z,12.90
2022-12-26T08:06:03.647Z,13.30
2022-12-26T08:08:31.729Z,13.70
2022-12-26T08:11:01.854Z,14.10
2022-12-26T08:13:30.511Z,14.50
2022-12-26T08:15:59.038Z,14.90
2022-12-26T08:18:26.939Z,15.40
2022-12-26T08:20:55.008Z,15.80
2022-12-26T08:23:22.928Z,16.20
2022-12-26T08:25:51.106Z,16.70
2022-12-26T08:28:19.300Z,17.10
2022-12-26T08:30:47.307Z,17.50
2022-12-26T08:33:15.360Z,17.90
2022-12-26T08:35:43.581Z,18.20
2022-12-26T08:38:11.758Z,18.60
2022-12-26T08:40:43.539Z,19.00
2022-12-26T08:43:30.271Z,19.40
2022-12-26T08:46:10.342Z,19.80
2022-12-26T08:48:39.540Z,20.20
2022-12-26T08:51:09.111Z,20.70
2022-12-26T08:53:37.601Z,21.00
2022-12-26T08:56:06.743Z,21.40
2022-12-26T08:58:35.606Z,21.80
2022-12-26T09:01:08.209Z,22.20
2022-12-26T09:03:37.778Z,22.50
2022-12-26T09:06:06.749Z,22.80
2022-12-26T09:08:35.491Z,23.20
2022-12-26T09:11:04.823Z,23.30
2022-12-26T09:13:33.606Z,23.30
2022-12-26T09:16:09.318Z,23.70
2022-12-26T09:18:37.922Z,24.10
2022-12-26T09:21:07.019Z,24.00
2022-12-26T09:23:35.820Z,24.00
2022-12-26T09:26:04.882Z,24.30
2022-12-26T09:28:33.331Z,24.80
2022-12-26T09:31:05.457Z,24.80
2022-12-26T09:33:33.769Z,24.70
2022-12-26T09:36:08.244Z,25.10
2022-12-26T09:38:39.084Z,25.60
2022-12-26T09:41:25.355Z,25.80
2022-12-26T09:44:12.089Z,26.00
2022-12-26T09:46:55.217Z,26.10
2022-12-26T09:49:36.239Z,26.30
2022-12-26T09:52:11.117Z,26.70
2022-12-26T09:54:50.079Z,27.00
2022-12-26T09:57:27.135Z,27.20
2022-12-26T09:59:57.099Z,27.70
2022-12-26T10:02:26.674Z,27.90
2022-12-26T10:04:55.300Z,28.20
2022-12-26T10:07:26.383Z,28.50
2022-12-26T10:09:57.589Z,28.80
2022-12-26T10:12:37.778Z,29.00
2022-12-26T10:15:24.347Z,29.30
2022-12-26T10:17:57.265Z,29.50
2022-12-26T10:20:31.415Z,29.90
2022-12-26T10:23:07.333Z,30.20
2022-12-26T10:25:42.661Z,30.40
2022-12-26T10:28:28.427Z,30.70
2022-12-26T10:30:58.113Z,30.90
2022-12-26T10:33:33.844Z,30.90
2022-12-26T10:36:02.548Z,31.10
2022-12-26T10:38:42.544Z,31.10
2022-12-26T10:41:14.323Z,30.90
2022-12-26T10:43:45.331Z,30.90
2022-12-26T10:46:19.472Z,30.80
2022-12-26T10:48:48.703Z,30.90
2022-12-26T10:51:17.045Z,31.10
2022-12-26T10:53:48.766Z,31.20
2022-12-26T10:56:18.449Z,31.50
2022-12-26T10:58:47.155Z,31.60
2022-12-26T11:01:48.002Z,31.80
2022-12-26T11:04:18.918Z,31.90
2022-12-26T11:06:54.351Z,32.10
2022-12-26T11:09:24.750Z,32.20
2022-12-26T11:11:54.660Z,32.30
2022-12-26T11:14:42.874Z,32.50
2022-12-26T11:17:15.480Z,32.40
2022-12-26T11:19:44.705Z,32.50
2022-12-26T11:22:23.818Z,32.60
2022-12-26T11:25:10.040Z,32.80
2022-12-26T11:27:39.385Z,33.00
2022-12-26T11:30:22.298Z,33.10
2022-12-26T11:32:52.259Z,33.10
2022-12-26T11:35:22.338Z,32.90
2022-12-26T11:37:55.546Z,33.00
2022-12-26T11:40:29.854Z,32.80
2022-12-26T11:42:59.176Z,32.70
2022-12-26T11:45:30.781Z,32.50
2022-12-26T11:48:02.138Z,32.20
2022-12-26T11:50:31.331Z,32.00
2022-12-26T11:52:59.456Z,31.60
2022-12-26T11:55:29.749Z,31.10
2022-12-26T11:58:07.027Z,30.80
2022-12-26T12:00:35.154Z,30.70
2022-12-26T12:03:04.288Z,31.10
2022-12-26T12:05:40.938Z,31.50
2022-12-26T12:08:09.081Z,31.90
2022-12-26T12:10:49.790Z,32.20
2022-12-26T12:13:18.401Z,32.10
2022-12-26T12:15:57.049Z,31.80
2022-12-26T12:18:25.014Z,31.40
2022-12-26T12:21:04.808Z,30.80
2022-12-26T12:23:35.550Z,30.70
2022-12-26T12:26:03.530Z,30.70
2022-12-26T12:28:34.251Z,30.70
2022-12-26T12:31:20.827Z,30.90
2022-12-26T12:33:48.858Z,30.90
2022-12-26T12:36:31.124Z,30.80
2022-12-26T12:39:02.607Z,30.80
2022-12-26T12:41:33.593Z,30.80
2022-12-26T12:44:05.982Z,30.60
2022-12-26T12:46:52.716Z,30.60
2022-12-26T12:49:30.724Z,30.20
2022-12-26T12:52:17.264Z,30.20
2022-12-26T12:55:14.794Z,30.10
2022-12-26T12:57:42.771Z,30.20
2022-12-26T13:00:17.039Z,30.10
2022-12-26T13:02:49.590Z,30.00
2022-12-26T13:05:20.698Z,29.50
2022-12-26T13:07:51.995Z,28.90
2022-12-26T13:10:30.356Z,28.40
2022-12-26T13:12:58.941Z,27.60
2022-12-26T13:15:26.745Z,26.70
2022-12-26T13:18:13.583Z,26.30
2022-12-26T13:20:50.351Z,25.70
2022-12-26T13:24:03.157Z,24.80
2022-12-26T13:26:43.015Z,24.10
2022-12-26T13:29:34.191Z,23.70
2022-12-26T13:32:04.884Z,23.50
2022-12-26T13:34:33.130Z,23.30
2022-12-26T13:37:01.400Z,23.00
2022-12-26T13:39:31.562Z,22.80
2022-12-26T13:42:18.052Z,22.70
2022-12-26T13:44:53.825Z,22.50
2022-12-26T13:47:48.356Z,22.30
2022-12-26T13:50:35.096Z,22.10
2022-12-26T13:53:03.341Z,21.90
2022-12-26T13:55:41.259Z,21.60
2022-12-26T13:58:34.921Z,21.40
2022-12-26T14:01:09.124Z,21.20
2022-12-26T14:03:55.983Z,21.00
2022-12-26T14:06:43.562Z,20.90
2022-12-26T14:09:11.470Z,20.80
2022-12-26T14:11:58.339Z,20.60
2022-12-26T14:14:26.281Z,20.40
2022-12-26T14:16:59.337Z,20.30
2022-12-26T14:19:27.414Z,20.10
2022-12-26T14:22:07.208Z,19.90
2022-12-26T14:24:51.127Z,19.80
2022-12-26T14:27:38.097Z,19.60
2022-12-26T14:30:15.967Z,19.50
2022-12-26T14:32:51.732Z,19.30
2022-12-26T14:35:31.985Z,19.10
2022-12-26T14:38:23.280Z,19.00
2022-12-26T14:40:59.114Z,18.80
2022-12-26T14:43:37.594Z,18.70
2022-12-26T14:46:12.715Z,18.50
2022-12-26T14:48:43.232Z,18.40
2022-12-26T14:51:20.468Z,18.20
2022-12-26T14:54:08.436Z,18.10
2022-12-26T14:56:38.013Z,18.00
2022-12-26T14:59:24.745Z,17.80
2022-12-26T15:02:03.084Z,17.70
2022-12-26T15:04:47.290Z,17.50
2022-12-26T15:07:28.822Z,17.50
2022-12-26T15:09:59.912Z,17.40
2022-12-26T15:12:39.635Z,17.20
2022-12-26T15:15:10.560Z,17.10
2022-12-26T15:17:50.663Z,17.00
2022-12-26T15:20:37.177Z,16.80
2022-12-26T15:23:23.748Z,16.70
2022-12-26T15:26:17.612Z,16.60
2022-12-26T15:29:04.324Z,16.50
2022-12-26T15:31:50.929Z,16.40
2022-12-26T15:34:34.280Z,16.30
2022-12-26T15:37:02.261Z,16.10
2022-12-26T15:39:51.309Z,16.10
2022-12-26T15:42:43.021Z,15.90
2022-12-26T15:45:26.141Z,15.80
2022-12-26T15:48:05.148Z,15.70
2022-12-26T15:50:44.323Z,15.50
2022-12-26T15:53:21.634Z,15.50
2022-12-26T15:56:02.653Z,15.40
2022-12-26T15:58:49.428Z,15.30
2022-12-26T16:01:34.455Z,15.20
2022-12-26T16:04:04.230Z,15.10
2022-12-26T16:06:52.375Z,15.00
2022-12-26T16:09:39.493Z,15.00
2022-12-26T16:12:27.664Z,14.90
2022-12-26T16:15:01.707Z,14.90
2022-12-26T16:17:29.964Z,14.80
2022-12-26T16:19:57.835Z,14.70
2022-12-26T16:22:44.684Z,14.60
2022-12-26T16:25:22.882Z,14.50
2022-12-26T16:27:55.283Z,14.40
2022-12-26T16:30:25.240Z,14.40
2022-12-26T16:32:53.993Z,14.30
2022-12-26T16:35:24.795Z,14.20
2022-12-26T16:37:54.325Z,14.20
2022-12-26T16:40:28.452Z,14.10
2022-12-26T16:42:59.515Z,14.00
2022-12-26T16:45:29.339Z,13.90
2022-12-26T16:47:57.323Z,13.80
2022-12-26T16:50:30.053Z,13.70
2022-12-26T16:53:24.585Z,13.70
2022-12-26T16:55:57.174Z,13.70
2022-12-26T16:58:27.683Z,13.60
2022-12-26T17:01:05.025Z,13.50
2022-12-26T17:03:38.148Z,13.40
2022-12-26T17:06:14.586Z,13.30
2022-12-26T17:08:44.426Z,13.20
2022-12-26T17:11:12.835Z,13.00
2022-12-26T17:13:41.482Z,12.90
2022-12-26T17:16:11.014Z,12.90
2022-12-26T17:18:47.169Z,12.70
2022-12-26T17:21:30.345Z,12.60
2022-12-26T17:24:05.346Z,12.60
2022-12-26T17:26:33.843Z,12.50
2022-12-26T17:29:01.818Z,12.50
2022-12-26T17:31:29.748Z,12.40
2022-12-26T17:33:58.073Z,12.30
2022-12-26T17:39:23.775Z,12.30
2022-12-26T17:42:01.861Z,12.10
2022-12-26T17:44:33.228Z,12.10
2022-12-26T17:47:13.473Z,12.00
2022-12-26T17:49:41.593Z,12.00
2022-12-26T17:52:11.488Z,11.90
2022-12-26T17:54:39.593Z,12.00
2022-12-26T17:57:09.696Z,11.90
2022-12-26T17:59:37.601Z,11.90
2022-12-26T18:02:05.835Z,11.80
2022-12-26T18:04:33.782Z,11.80
2022-12-26T18:07:01.848Z,11.70
2022-12-26T18:09:29.950Z,11.70
2022-12-26T18:11:58.686Z,11.60
2022-12-26T18:14:26.788Z,11.60
2022-12-26T18:16:54.756Z,11.50
2022-12-26T18:19:22.865Z,11.50
2022-12-26T18:21:50.854Z,11.60
2022-12-26T18:24:19.099Z,11.50
2022-12-26T18:26:47.253Z,11.50
2022-12-26T18:29:15.335Z,11.60
2022-12-26T18:31:43.366Z,11.60
2022-12-26T18:34:11.404Z,11.60
2022-12-26T18:36:41.526Z,11.50
2022-12-26T18:39:12.098Z,11.50
2022-12-26T18:41:40.191Z,11.50
2022-12-26T18:44:08.020Z,11.40
2022-12-26T18:46:35.931Z,11.40
2022-12-26T18:49:03.973Z,11.30
2022-12-26T18:51:31.825Z,11.20
2022-12-26T18:53:59.816Z,11.10
2022-12-26T18:56:27.677Z,11.10
2022-12-26T18:58:58.045Z,11.00
2022-12-26T19:01:26.547Z,11.00
2022-12-26T19:03:55.328Z,10.90
2022-12-26T19:06:25.148Z,10.90
2022-12-26T19:08:53.188Z,10.90
2022-12-26T19:11:21.304Z,10.90
2022-12-26T19:13:49.377Z,10.90
2022-12-26T19:16:17.406Z,10.80
2022-12-26T19:18:45.487Z,10.80
2022-12-26T19:21:14.465Z,10.80
2022-12-26T19:23:43.412Z,10.70
2022-12-26T19:26:18.924Z,10.70
2022-12-26T19:28:51.097Z,10.70
2022-12-26T19:31:19.759Z,10.60
2022-12-26T19:33:48.075Z,10.50
2022-12-26T19:36:16.259Z,10.50
2022-12-26T19:38:44.385Z,10.50
2022-12-26T19:41:13.549Z,10.50
2022-12-26T19:43:41.501Z,10.50
2022-12-26T19:46:11.694Z,10.40
2022-12-26T19:48:39.849Z,10.40
2022-12-26T19:51:09.050Z,10.40
2022-12-26T19:53:37.635Z,10.40
2022-12-26T19:56:13.531Z,10.30
2022-12-26T19:58:41.702Z,10.30
2022-12-26T20:01:11.094Z,10.20
2022-12-26T20:03:40.361Z,10.10
2022-12-26T20:06:12.636Z,10.10
2022-12-26T20:08:41.139Z,10.10
2022-12-26T20:11:12.857Z,10.00
2022-12-26T20:13:41.653Z,10.00
2022-12-26T20:16:37.476Z,10.00
2022-12-26T20:18:59.977Z,9.80
2022-12-26T20:21:27.873Z,9.80
2022-12-26T20:23:57.698Z,9.70
2022-12-26T20:26:26.365Z,9.60
2022-12-26T20:28:58.382Z,9.50
2022-12-26T20:31:26.538Z,9.40
2022-12-26T20:33:54.463Z,9.30
2022-12-26T20:36:24.029Z,9.30
2022-12-26T20:38:57.258Z,9.20
2022-12-26T20:41:25.600Z,9.20
2022-12-26T20:43:53.963Z,9.20
2022-12-26T20:46:23.138Z,9.10
2022-12-26T20:48:51.338Z,9.10
2022-12-26T20:51:20.684Z,9.10
2022-12-26T20:53:48.682Z,9.10
2022-12-26T20:56:16.590Z,9.00
2022-12-26T20:58:44.942Z,9.00
2022-12-26T21:01:17.429Z,9.00
2022-12-26T21:03:45.910Z,9.00
2022-12-26T21:06:13.777Z,8.90
2022-12-26T21:08:42.633Z,8.90
2022-12-26T21:11:15.015Z,8.90
2022-12-26T21:13:44.098Z,8.80
2022-12-26T21:16:16.679Z,8.80
2022-12-26T21:18:44.756Z,8.80
2022-12-26T21:21:22.436Z,8.80
2022-12-26T21:23:54.600Z,8.80
2022-12-26T21:26:22.521Z,8.70
2022-12-26T21:28:54.395Z,8.60
2022-12-26T21:31:22.428Z,8.70
2022-12-26T21:33:50.336Z,8.60
2022-12-26T21:36:18.499Z,8.60
2022-12-26T21:38:46.484Z,8.60
2022-12-26T21:41:14.981Z,8.60
2022-12-26T21:43:42.906Z,8.60
2022-12-26T21:46:15.279Z,8.50
2022-12-26T21:48:50.452Z,8.60
2022-12-26T21:51:18.867Z,8.50
2022-12-26T21:53:47.469Z,8.50
2022-12-26T21:56:16.983Z,8.40
2022-12-26T21:59:03.694Z,8.40
2022-12-26T22:01:31.762Z,8.40
2022-12-26T22:04:18.364Z,8.40
2022-12-26T22:06:46.388Z,8.30
2022-12-26T22:09:16.039Z,8.30
2022-12-26T22:12:03.103Z,8.30
2022-12-26T22:14:34.301Z,8.20
2022-12-26T22:17:02.405Z,8.20
2022-12-26T22:19:30.260Z,8.20
2022-12-26T22:21:58.408Z,8.20
2022-12-26T22:24:26.278Z,8.10
2022-12-26T22:26:54.370Z,8.10
2022-12-26T22:29:22.319Z,8.10
2022-12-26T22:31:50.541Z,8.10
2022-12-26T22:34:18.560Z,8.10
2022-12-26T22:36:46.587Z,8.10
2022-12-26T22:39:17.320Z,8.00
2022-12-26T22:41:46.323Z,8.10
2022-12-26T22:44:14.873Z,8.10
2022-12-26T22:46:42.975Z,8.00
2022-12-26T22:49:11.072Z,8.00
2022-12-26T22:51:39.738Z,8.00
2022-12-26T22:54:07.632Z,8.00
2022-12-26T22:56:35.753Z,7.90
2022-12-26T22:59:03.671Z,8.00
2022-12-26T23:01:31.922Z,7.90
2022-12-26T23:04:03.642Z,7.90
2022-12-26T23:06:33.100Z,7.90
2022-12-26T23:09:01.919Z,7.80
2022-12-26T23:11:34.877Z,7.80
2022-12-26T23:14:05.240Z,7.70
2022-12-26T23:16:42.682Z,7.70
2022-12-26T23:19:32.615Z,7.70
2022-12-26T23:22:01.232Z,7.70
2022-12-26T23:24:30.378Z,7.60
2022-12-26T23:27:18.733Z,7.60
2022-12-26T23:30:05.362Z,7.60
2022-12-26T23:32:33.464Z,7.60
2022-12-26T23:35:01.419Z,7.60
2022-12-26T23:37:29.319Z,7.60
2022-12-26T23:39:57.336Z,7.60
2022-12-26T23:42:25.327Z,7.50
2022-12-26T23:44:54.303Z,7.50
2022-12-26T23:47:22.133Z,7.50
2022-12-26T23:49:50.094Z,7.40
2022-12-26T23:52:18.075Z,7.40
2022-12-26T23:54:46.078Z,7.40
2022-12-26T23:57:14.068Z,7.40
2022-12-26T23:59:42.064Z,7.30
